Time;durP1;ratioP1;P1;durP2;ratioP2;P2;SDS_P1;SDS_P2;PMS_P1;PMS_P2;Temp;Humidity;BMP_temperature;BMP_pressure;BME280_temperature;BME280_humidity;BME280_pressure;Samples;Min_cycle;Max_cycle;Signal;HPM_P1;HPM_P2
2021/10/11 00:00:44;;;;;;;;;;;;;;;2.58;90.93;97031.28;5019454;28;19933;-79
2021/10/11 00:03:09;;;;;;;;;;;;;;;2.62;90.78;97032.56;5019134;28;19929;-80
2021/10/11 00:05:35;;;;;;;;;;;;;;;2.51;91.34;97030.31;5036666;28;19932;-80
2021/10/11 00:08:00;;;;;;;;;;;;;;;2.40;91.98;97025.47;5033800;28;19952;-80
2021/10/11 00:10:25;;;;;;;;;;;;;;;2.51;91.92;97022.53;5026121;28;19933;-78
2021/10/11 00:12:53;;;;;;;;;;;;;;;2.50;91.79;97018.31;5014497;28;19964;-78
2021/10/11 00:15:19;;;;;;;;;;;;;;;2.46;92.19;97017.03;5033257;28;20329;-79
2021/10/11 00:17:44;;;;;;;;;;;;;;;2.48;91.45;97030.66;5016019;28;19933;-81
2021/10/11 00:20:11;;;;;;;;;;;;;;;2.50;91.81;97029.50;5014204;28;19929;-77
2021/10/11 00:22:36;;;;;;;;;;;;;;;2.43;91.47;97033.75;5036955;28;19937;-79
2021/10/11 00:25:04;;;;;;;;;;;;;;;2.43;91.15;97038.16;5026779;28;20352;-78
2021/10/11 00:27:29;;;;;;;;;;;;;;;2.43;90.72;97032.94;5033438;28;19940;-79
2021/10/11 00:29:59;;;;;;;;;;;;;;;2.50;90.77;97033.91;5013890;28;20261;-78
2021/10/11 00:32:24;;;;;;;;;;;;;;;2.31;90.47;97027.25;5015113;28;20349;-79
2021/10/11 00:34:49;;;;;;;;;;;;;;;2.20;90.99;97022.41;5037565;28;19932;-79
2021/10/11 00:37:17;;;;;;;;;;;;;;;2.19;91.05;97036.34;5049623;28;19968;-78
2021/10/11 00:39:43;;;;;;;;;;;;;;;2.06;91.07;97034.25;5036711;28;19956;-78
2021/10/11 00:42:08;;;;;;;;;;;;;;;1.97;91.00;97032.63;5035122;28;19933;-79
2021/10/11 00:44:36;;;;;;;;;;;;;;;1.87;91.46;97031.97;5034103;28;20383;-78
2021/10/11 00:47:03;;;;;;;;;;;;;;;1.89;92.61;97025.66;5033638;28;20074;-79
2021/10/11 00:49:29;;;;;;;;;;;;;;;1.81;93.20;97023.03;5040936;28;19940;-79
2021/10/11 00:51:54;;;;;;;;;;;;;;;1.92;92.47;97020.13;5020867;28;20379;-78
2021/10/11 00:54:20;;;;;;;;;;;;;;;1.95;92.29;97000.84;5031790;28;20399;-77
2021/10/11 00:56:45;;;;;;;;;;;;;;;1.97;92.23;97004.88;5031007;28;19960;-77
2021/10/11 00:59:10;;;;;;;;;;;;;;;1.95;92.18;97008.63;5015116;28;19944;-77
2021/10/11 01:01:38;;;;;;;;;;;;;;;2.05;92.28;97009.28;5033473;28;19925;-78
2021/10/11 01:04:06;;;;;;;;;;;;;;;2.01;91.84;97013.16;5013703;28;19925;-77
2021/10/11 01:06:32;;;;;;;;;;;;;;;1.97;91.98;97011.88;5036379;28;19925;-76
2021/10/11 01:09:00;;;;;;;;;;;;;;;1.95;91.94;97013.81;5035429;28;19978;-77
2021/10/11 01:11:25;;;;;;;;;;;;;;;1.95;91.83;97012.03;5031825;28;19936;-78
2021/10/11 01:13:50;;;;;;;;;;;;;;;1.88;92.51;97011.03;5031281;28;19978;-79
2021/10/11 01:16:16;;;;;;;;;;;;;;;1.95;92.51;97013.81;5013731;28;19936;-76
2021/10/11 01:18:43;;;;;;;;;;;;;;;1.86;92.61;97013.00;5019304;28;19996;-77
2021/10/11 01:21:10;;;;;;;;;;;;;;;1.92;92.65;97004.56;5018775;28;20377;-76
2021/10/11 01:23:35;;;;;;;;;;;;;;;1.99;92.01;96999.53;5019515;28;19932;-79
2021/10/11 01:26:01;;;;;;;;;;;;;;;1.97;91.91;96993.69;5032960;28;19929;-78
2021/10/11 01:28:29;;;;;;;;;;;;;;;2.01;92.04;96985.44;5016585;28;19926;-78
2021/10/11 01:30:54;;;;;;;;;;;;;;;1.92;91.90;96980.41;5024200;28;19932;-77
2021/10/11 01:33:22;;;;;;;;;;;;;;;1.88;91.91;96986.88;5035053;28;19925;-79
2021/10/11 01:35:47;;;;;;;;;;;;;;;1.95;91.95;96986.09;5045387;28;19929;-78
2021/10/11 01:38:14;;;;;;;;;;;;;;;1.99;91.87;96983.97;5057925;28;19931;-80
2021/10/11 01:40:40;;;;;;;;;;;;;;;1.99;91.42;96989.16;5038588;28;19909;-78
2021/10/11 01:43:06;;;;;;;;;;;;;;;1.86;91.72;96986.25;5030931;28;19925;-78
2021/10/11 01:45:31;;;;;;;;;;;;;;;1.91;92.03;96982.19;5024171;28;20309;-79
2021/10/11 01:47:56;;;;;;;;;;;;;;;1.89;91.84;96983.34;5040801;28;19929;-80
2021/10/11 01:50:24;;;;;;;;;;;;;;;1.85;91.79;96985.44;5052745;28;19921;-79
2021/10/11 01:52:52;;;;;;;;;;;;;;;1.84;92.26;96987.22;5049313;28;19929;-78
2021/10/11 01:55:19;;;;;;;;;;;;;;;1.93;92.36;96974.22;5044717;28;19929;-78
2021/10/11 01:57:46;;;;;;;;;;;;;;;1.92;92.74;96970.84;5042409;28;20039;-77
2021/10/11 02:00:12;;;;;;;;;;;;;;;1.87;92.63;96964.50;5041918;28;19926;-78
2021/10/11 02:02:40;;;;;;;;;;;;;;;1.82;92.97;96958.03;5040279;28;19939;-78
2021/10/11 02:05:06;;;;;;;;;;;;;;;1.79;93.21;96958.38;5020190;28;20381;-77
2021/10/11 02:07:33;;;;;;;;;;;;;;;1.79;92.82;96968.72;5019551;28;20348;-78
2021/10/11 02:09:59;;;;;;;;;;;;;;;1.77;92.60;96969.84;5037724;28;19925;-81
2021/10/11 02:12:25;;;;;;;;;;;;;;;1.84;92.46;96966.47;5039004;28;20018;-79
2021/10/11 02:14:51;;;;;;;;;;;;;;;1.74;92.93;96970.19;5038545;28;19929;-78
2021/10/11 02:17:19;;;;;;;;;;;;;;;1.73;93.12;96974.56;5037857;28;20468;-77
2021/10/11 02:19:44;;;;;;;;;;;;;;;1.57;93.33;96971.97;5020119;28;19952;-78
2021/10/11 02:22:09;;;;;;;;;;;;;;;1.49;93.03;96971.94;5036303;28;19929;-78
2021/10/11 02:24:35;;;;;;;;;;;;;;;1.43;92.88;96970.81;5037424;28;19926;-81
2021/10/11 02:27:00;;;;;;;;;;;;;;;1.31;93.59;96967.69;5041146;28;19932;-80
2021/10/11 02:29:29;;;;;;;;;;;;;;;1.22;94.15;96971.25;5036769;28;20017;-80
2021/10/11 02:31:54;;;;;;;;;;;;;;;1.15;94.61;96972.03;5036232;28;19925;-78
2021/10/11 02:34:20;;;;;;;;;;;;;;;1.19;94.36;96975.94;5036318;28;19932;-80
2021/10/11 02:36:45;;;;;;;;;;;;;;;1.13;94.39;96966.19;5017953;28;19925;-80
2021/10/11 02:39:13;;;;;;;;;;;;;;;1.02;94.80;96975.06;5017441;28;19965;-77
2021/10/11 02:41:38;;;;;;;;;;;;;;;1.09;94.61;96970.09;5033862;28;19910;-77
2021/10/11 02:44:04;;;;;;;;;;;;;;;1.04;94.72;96970.56;5014744;28;19932;-77
2021/10/11 02:46:31;;;;;;;;;;;;;;;1.05;94.72;96977.34;5014645;28;19932;-77
2021/10/11 02:48:56;;;;;;;;;;;;;;;0.99;94.93;96972.81;5026228;28;19929;-79
2021/10/11 02:51:21;;;;;;;;;;;;;;;0.88;95.82;96973.88;5020588;28;19925;-77
2021/10/11 02:53:49;;;;;;;;;;;;;;;0.93;96.13;96970.84;5040970;28;20027;-78
2021/10/11 02:56:15;;;;;;;;;;;;;;;0.95;95.26;96968.88;5039327;28;19925;-78
2021/10/11 02:58:40;;;;;;;;;;;;;;;0.83;95.84;96975.31;5027562;28;19925;-81
2021/10/11 03:01:05;;;;;;;;;;;;;;;0.68;95.73;96972.50;5046666;28;19925;-81
2021/10/11 03:03:32;;;;;;;;;;;;;;;0.68;96.41;96960.38;5040748;28;19996;-82
2021/10/11 03:05:58;;;;;;;;;;;;;;;0.53;97.29;96964.50;5043346;28;19960;-78
2021/10/11 03:08:25;;;;;;;;;;;;;;;0.67;97.25;96966.53;5023330;28;19925;-81
2021/10/11 03:10:51;;;;;;;;;;;;;;;0.60;96.85;96960.34;5037120;28;19925;-80
2021/10/11 03:13:19;;;;;;;;;;;;;;;0.62;96.48;96958.41;5036751;28;19958;-78
2021/10/11 03:15:46;;;;;;;;;;;;;;;0.59;96.31;96956.09;5018000;28;19945;-79
2021/10/11 03:18:12;;;;;;;;;;;;;;;0.43;97.41;96956.88;5035014;28;19925;-80
2021/10/11 03:20:38;;;;;;;;;;;;;;;0.41;97.53;96950.22;5051894;28;19924;-78
2021/10/11 03:23:04;;;;;;;;;;;;;;;0.38;97.96;96955.69;5020956;28;19960;-80
2021/10/11 03:25:29;;;;;;;;;;;;;;;0.47;98.00;96958.16;5017347;28;19925;-78
2021/10/11 03:27:54;;;;;;;;;;;;;;;0.52;97.63;96962.88;5017612;28;19925;-80
2021/10/11 03:30:20;;;;;;;;;;;;;;;0.53;97.46;96967.09;5017968;28;19984;-79
2021/10/11 03:32:45;;;;;;;;;;;;;;;0.53;97.20;96967.88;5039741;28;19924;-81
2021/10/11 03:35:11;;;;;;;;;;;;;;;0.49;97.09;96960.63;5021704;28;19933;-80
2021/10/11 03:37:40;;;;;;;;;;;;;;;0.36;97.92;96968.78;5039484;28;19939;-78
2021/10/11 03:40:06;;;;;;;;;;;;;;;0.34;98.19;96959.56;5021365;28;19925;-77
2021/10/11 03:42:32;;;;;;;;;;;;;;;0.32;98.66;96971.81;5019285;28;20366;-77
2021/10/11 03:44:57;;;;;;;;;;;;;;;0.27;98.61;96977.47;5036528;28;19972;-77
2021/10/11 03:47:23;;;;;;;;;;;;;;;0.30;98.22;96968.59;5036304;28;19929;-75
2021/10/11 03:49:48;;;;;;;;;;;;;;;0.20;99.46;96968.69;5051430;28;19923;-75
2021/10/11 03:52:16;;;;;;;;;;;;;;;0.15;99.93;96973.50;5051032;28;19925;-76
2021/10/11 03:54:43;;;;;;;;;;;;;;;0.39;99.22;96967.69;5038121;28;19932;-75
2021/10/11 03:57:08;;;;;;;;;;;;;;;0.41;98.51;96970.91;5037333;28;20020;-77
2021/10/11 03:59:34;;;;;;;;;;;;;;;0.39;99.09;96984.00;5041440;28;20368;-76
2021/10/11 04:01:59;;;;;;;;;;;;;;;0.50;99.37;96986.34;5036279;28;19929;-76
2021/10/11 04:04:25;;;;;;;;;;;;;;;0.49;99.27;96995.06;5037998;28;19925;-77
2021/10/11 04:06:53;;;;;;;;;;;;;;;0.52;99.45;96978.41;5036163;28;20290;-76
2021/10/11 04:09:25;;;;;;;;;;;;;;;0.43;99.54;97002.63;5049110;28;19929;-76
2021/10/11 04:11:52;;;;;;;;;;;;;;;0.43;99.94;96995.69;5070672;22;19925;-82
2021/10/11 04:14:17;;;;;;;;;;;;;;;0.38;99.57;97007.47;5057565;28;20023;-81
2021/10/11 04:16:43;;;;;;;;;;;;;;;0.44;100.00;97010.25;5058662;28;19937;-80
2021/10/11 04:19:10;;;;;;;;;;;;;;;0.26;100.00;97002.50;5059089;28;19925;-81
2021/10/11 04:21:42;;;;;;;;;;;;;;;0.27;100.00;97000.75;5057694;28;19925;-80
2021/10/11 04:24:10;;;;;;;;;;;;;;;0.36;99.97;96994.66;5055388;28;19973;-84
2021/10/11 04:26:36;;;;;;;;;;;;;;;0.37;99.56;96990.28;5060520;28;19959;-83
2021/10/11 04:29:03;;;;;;;;;;;;;;;0.40;99.75;96990.00;5064985;28;20308;-80
2021/10/11 04:31:30;;;;;;;;;;;;;;;0.41;99.34;96986.44;5068400;28;19932;-83
2021/10/11 04:33:58;;;;;;;;;;;;;;;0.52;99.29;96989.56;5064518;28;19928;-81
2021/10/11 04:36:26;;;;;;;;;;;;;;;0.58;99.25;96982.97;5070293;28;19925;-83
2021/10/11 04:38:51;;;;;;;;;;;;;;;0.60;99.05;96983.66;5078430;28;19925;-84
2021/10/11 04:41:16;;;;;;;;;;;;;;;0.66;99.04;96985.63;5069983;28;20300;-84
2021/10/11 04:43:42;;;;;;;;;;;;;;;0.52;99.13;96988.75;5060522;28;20396;-82
2021/10/11 04:46:08;;;;;;;;;;;;;;;0.51;99.56;96981.97;5062416;28;19936;-85
2021/10/11 04:48:34;;;;;;;;;;;;;;;0.59;100.00;96978.59;5077744;28;19908;-85
2021/10/11 04:50:59;;;;;;;;;;;;;;;0.59;99.68;96971.63;5075053;28;19966;-86
2021/10/11 04:53:25;;;;;;;;;;;;;;;0.58;100.00;96982.97;5078277;28;20031;-86
2021/10/11 04:55:50;;;;;;;;;;;;;;;0.60;99.75;96990.59;5075005;28;19975;-85
2021/10/11 04:58:18;;;;;;;;;;;;;;;0.61;99.84;96966.34;5074681;28;19924;-86
2021/10/11 05:00:43;;;;;;;;;;;;;;;0.62;99.89;96976.53;5074068;28;19925;-83
2021/10/11 05:03:10;;;;;;;;;;;;;;;0.51;99.97;96987.94;5067091;28;19935;-84
2021/10/11 05:05:35;;;;;;;;;;;;;;;0.47;100.00;96991.81;5065456;28;19929;-84
2021/10/11 05:08:04;;;;;;;;;;;;;;;0.50;100.00;96996.69;5060393;28;19932;-85
2021/10/11 05:10:31;;;;;;;;;;;;;;;0.57;100.00;96994.28;5069251;28;19925;-84
2021/10/11 05:12:57;;;;;;;;;;;;;;;0.73;100.00;96983.22;5068044;28;19925;-83
2021/10/11 05:15:22;;;;;;;;;;;;;;;0.73;100.00;96978.84;5069067;28;19979;-83
2021/10/11 05:17:48;;;;;;;;;;;;;;;0.68;100.00;96977.69;5068925;28;20376;-83
2021/10/11 05:20:14;;;;;;;;;;;;;;;0.79;100.00;96972.22;5068998;28;19948;-85
2021/10/11 05:22:40;;;;;;;;;;;;;;;0.79;100.00;96964.47;5069057;28;20293;-84
2021/10/11 05:25:06;;;;;;;;;;;;;;;0.95;100.00;96979.25;5069392;28;19996;-84
2021/10/11 05:27:32;;;;;;;;;;;;;;;0.78;100.00;96974.00;5059868;28;19975;-83
2021/10/11 05:29:57;;;;;;;;;;;;;;;0.99;100.00;96980.56;5058838;28;19925;-82
2021/10/11 05:32:24;;;;;;;;;;;;;;;0.98;100.00;96978.94;5055058;28;19991;-83
2021/10/11 05:34:50;;;;;;;;;;;;;;;0.84;100.00;96976.94;5049109;28;19925;-86
2021/10/11 05:37:17;;;;;;;;;;;;;;;0.83;100.00;96975.31;5059594;28;19964;-83
2021/10/11 05:39:44;;;;;;;;;;;;;;;1.04;100.00;96975.72;5042200;28;20381;-82
2021/10/11 05:42:10;;;;;;;;;;;;;;;0.81;100.00;96974.66;5038768;28;19925;-80
2021/10/11 05:44:35;;;;;;;;;;;;;;;0.93;99.80;96970.84;5043473;28;19951;-81
2021/10/11 05:47:02;;;;;;;;;;;;;;;0.97;99.77;96977.31;5046160;28;19925;-80
2021/10/11 05:49:27;;;;;;;;;;;;;;;1.05;99.19;96972.97;5043015;28;19925;-80
2021/10/11 05:51:53;;;;;;;;;;;;;;;1.06;98.68;96973.78;5052464;28;20416;-78
2021/10/11 05:54:22;;;;;;;;;;;;;;;1.01;98.36;96973.44;5033138;28;19925;-77
2021/10/11 05:56:47;;;;;;;;;;;;;;;1.04;98.22;96973.94;5033866;28;19931;-78
2021/10/11 05:59:13;;;;;;;;;;;;;;;0.83;98.10;96970.97;5034715;28;19925;-77
2021/10/11 06:01:38;;;;;;;;;;;;;;;0.87;97.83;96976.66;5036693;28;19979;-78
2021/10/11 06:04:06;;;;;;;;;;;;;;;0.88;97.35;96968.72;5039386;28;19931;-77
2021/10/11 06:06:31;;;;;;;;;;;;;;;0.63;97.37;96962.59;5053554;28;19932;-78
2021/10/11 06:08:59;;;;;;;;;;;;;;;0.61;97.94;96964.56;5035825;28;19929;-77
2021/10/11 06:11:26;;;;;;;;;;;;;;;0.68;97.88;96977.69;5036170;28;19925;-77
2021/10/11 06:13:53;;;;;;;;;;;;;;;0.72;97.57;96973.81;5033853;28;20019;-77
2021/10/11 06:16:19;;;;;;;;;;;;;;;0.68;97.64;96962.94;5032507;28;19932;-77
2021/10/11 06:18:47;;;;;;;;;;;;;;;0.76;98.06;96959.59;5034827;28;19938;-77
2021/10/11 06:21:12;;;;;;;;;;;;;;;0.79;97.36;96970.44;5037597;28;20036;-77
2021/10/11 06:23:37;;;;;;;;;;;;;;;0.75;97.97;96982.09;5035126;28;19956;-77
2021/10/11 06:26:03;;;;;;;;;;;;;;;0.70;97.57;96997.28;5033217;28;19925;-78
2021/10/11 06:28:30;;;;;;;;;;;;;;;0.77;97.79;97006.06;5035166;28;19925;-78
2021/10/11 06:30:55;;;;;;;;;;;;;;;0.82;97.20;97005.59;5033741;28;19925;-77
2021/10/11 06:33:24;;;;;;;;;;;;;;;0.97;96.90;96998.03;5034126;28;19926;-78
2021/10/11 06:35:50;;;;;;;;;;;;;;;1.12;97.10;97004.25;5034908;28;19925;-77
2021/10/11 06:38:15;;;;;;;;;;;;;;;1.19;96.57;97014.81;5033217;28;19925;-77
2021/10/11 06:40:42;;;;;;;;;;;;;;;1.24;95.86;97010.78;5036411;28;20016;-78
2021/10/11 06:43:08;;;;;;;;;;;;;;;1.26;95.71;97014.03;5034950;28;19948;-78
2021/10/11 06:45:36;;;;;;;;;;;;;;;1.50;95.96;97025.41;5035716;28;19925;-77
2021/10/11 06:48:01;;;;;;;;;;;;;;;1.71;94.80;97023.19;5033531;28;19929;-77
2021/10/11 06:50:27;;;;;;;;;;;;;;;1.88;94.33;97024.00;5034468;28;19987;-77
2021/10/11 06:52:52;;;;;;;;;;;;;;;1.98;94.08;97034.25;5035726;28;19936;-78
2021/10/11 06:55:18;;;;;;;;;;;;;;;2.11;93.82;97052.75;5034749;28;19960;-77
2021/10/11 06:57:43;;;;;;;;;;;;;;;2.22;93.38;97062.81;5034114;28;19997;-78
2021/10/11 07:00:11;;;;;;;;;;;;;;;2.36;92.17;97062.13;5033044;28;19972;-77
2021/10/11 07:02:39;;;;;;;;;;;;;;;2.68;91.66;97051.88;5033749;28;20340;-78
2021/10/11 07:05:09;;;;;;;;;;;;;;;2.80;90.92;97051.38;5038995;28;19957;-77
2021/10/11 07:07:34;;;;;;;;;;;;;;;2.95;89.93;97055.88;5038737;28;19925;-77
2021/10/11 07:10:00;;;;;;;;;;;;;;;3.08;89.88;97058.78;5037428;28;20015;-78
2021/10/11 07:12:25;;;;;;;;;;;;;;;3.15;89.84;97062.31;5036633;28;20300;-78
2021/10/11 07:14:51;;;;;;;;;;;;;;;3.31;89.64;97074.44;5037507;28;19925;-77
2021/10/11 07:17:16;;;;;;;;;;;;;;;3.48;89.06;97059.59;5038312;28;19926;-78
2021/10/11 07:19:46;;;;;;;;;;;;;;;3.58;89.31;97061.00;5037591;28;19996;-76
2021/10/11 07:22:11;;;;;;;;;;;;;;;3.71;88.91;97060.44;5055429;28;19935;-77
2021/10/11 07:24:37;;;;;;;;;;;;;;;3.77;88.92;97057.16;5051005;28;19925;-77
2021/10/11 07:27:02;;;;;;;;;;;;;;;3.92;89.31;97039.81;5037981;28;20435;-78
2021/10/11 07:29:28;;;;;;;;;;;;;;;4.09;88.93;97042.28;5038678;28;19963;-78
2021/10/11 07:31:54;;;;;;;;;;;;;;;4.22;88.42;97027.72;5040419;28;19933;-77
2021/10/11 07:34:19;;;;;;;;;;;;;;;4.35;88.06;97013.28;5039450;28;19925;-77
2021/10/11 07:36:46;;;;;;;;;;;;;;;4.40;87.58;97011.75;5037972;28;19968;-78
2021/10/11 07:39:11;;;;;;;;;;;;;;;4.51;87.05;97015.72;5037748;28;19925;-78
2021/10/11 07:41:37;;;;;;;;;;;;;;;4.50;87.00;97010.69;5038734;28;19933;-78
2021/10/11 07:44:05;;;;;;;;;;;;;;;4.46;86.99;97024.06;5038203;28;20452;-78
2021/10/11 07:46:30;;;;;;;;;;;;;;;4.54;86.83;97020.59;5035806;28;20389;-78
2021/10/11 07:48:56;;;;;;;;;;;;;;;4.56;87.07;97020.41;5036496;28;19929;-78
2021/10/11 07:51:21;;;;;;;;;;;;;;;4.52;87.47;97022.59;5037653;28;19926;-78
2021/10/11 07:53:48;;;;;;;;;;;;;;;4.65;87.15;97021.97;5035769;28;19925;-77
2021/10/11 07:56:15;;;;;;;;;;;;;;;4.82;86.82;97026.00;5035610;28;19971;-78
2021/10/11 07:58:41;;;;;;;;;;;;;;;4.89;86.12;97026.09;5038407;28;20443;-78
2021/10/11 08:01:06;;;;;;;;;;;;;;;4.99;85.65;97027.44;5038775;28;19933;-78
2021/10/11 08:03:32;;;;;;;;;;;;;;;5.04;86.66;97021.69;5038311;28;19925;-78
2021/10/11 08:05:59;;;;;;;;;;;;;;;5.15;86.44;97025.63;5037026;28;19929;-78
2021/10/11 08:08:25;;;;;;;;;;;;;;;5.28;86.38;97032.84;5037359;28;19925;-77
2021/10/11 08:10:53;;;;;;;;;;;;;;;5.45;85.65;97019.41;5037467;28;19936;-77
2021/10/11 08:13:20;;;;;;;;;;;;;;;5.52;85.81;97025.50;5037442;28;19969;-78
2021/10/11 08:15:45;;;;;;;;;;;;;;;5.64;85.46;97025.81;5037567;28;19925;-78
2021/10/11 08:18:13;;;;;;;;;;;;;;;5.76;85.42;97028.78;5035814;28;19925;-77
2021/10/11 08:20:39;;;;;;;;;;;;;;;5.94;85.19;97023.97;5036540;28;19925;-78
2021/10/11 08:23:04;;;;;;;;;;;;;;;6.14;84.81;97028.56;5037689;28;19932;-79
2021/10/11 08:25:32;;;;;;;;;;;;;;;6.38;84.31;97028.16;5037445;28;19956;-78
2021/10/11 08:27:59;;;;;;;;;;;;;;;6.59;83.67;97016.88;5037934;28;20389;-78
2021/10/11 08:30:24;;;;;;;;;;;;;;;6.78;82.56;97010.13;5035877;28;19929;-77
2021/10/11 08:32:49;;;;;;;;;;;;;;;7.05;82.28;97029.44;5036819;28;19971;-77
2021/10/11 08:35:15;;;;;;;;;;;;;;;7.20;81.41;97024.06;5036952;28;19990;-77
2021/10/11 08:37:40;;;;;;;;;;;;;;;7.34;80.95;97023.94;5035970;28;19925;-77
2021/10/11 08:40:09;;;;;;;;;;;;;;;7.71;80.18;97021.03;5035333;28;19928;-77
2021/10/11 08:42:36;;;;;;;;;;;;;;;7.89;79.43;97013.41;5036318;28;19932;-77
2021/10/11 08:45:04;;;;;;;;;;;;;;;7.95;78.84;97024.91;5035484;28;20381;-77
2021/10/11 08:47:30;;;;;;;;;;;;;;;8.16;78.62;97016.88;5036055;28;20340;-77
2021/10/11 08:49:55;;;;;;;;;;;;;;;8.20;78.00;97014.69;5036846;28;19932;-77
2021/10/11 08:52:22;;;;;;;;;;;;;;;8.37;78.33;97016.72;5036599;28;19925;-77
2021/10/11 08:54:48;;;;;;;;;;;;;;;8.36;77.38;97015.13;5037242;28;19929;-77
2021/10/11 08:57:20;;;;;;;;;;;;;;;8.34;77.51;97011.03;5035919;28;20305;-78
2021/10/11 08:59:46;;;;;;;;;;;;;;;8.39;77.10;97013.91;5035932;28;19952;-77
2021/10/11 09:02:15;;;;;;;;;;;;;;;8.36;77.45;97016.94;5036706;28;19926;-78
2021/10/11 09:04:45;;;;;;;;;;;;;;;8.45;76.81;97015.72;5035087;28;19929;-77
2021/10/11 09:07:10;;;;;;;;;;;;;;;8.58;77.06;97013.09;5035070;28;19983;-77
2021/10/11 09:09:43;;;;;;;;;;;;;;;8.47;77.46;97005.84;5036254;28;20507;-76
2021/10/11 09:12:14;;;;;;;;;;;;;;;8.70;76.67;97015.09;5035893;28;19925;-76
2021/10/11 09:14:45;;;;;;;;;;;;;;;8.89;75.79;97015.06;5034947;28;19929;-77
2021/10/11 09:17:13;;;;;;;;;;;;;;;8.90;75.74;97015.88;5034312;28;19932;-77
2021/10/11 09:19:46;;;;;;;;;;;;;;;9.02;75.42;97024.72;5035742;28;19925;-77
2021/10/11 09:22:12;;;;;;;;;;;;;;;9.20;75.42;97019.66;5036400;28;19933;-77
2021/10/11 09:24:37;;;;;;;;;;;;;;;9.31;74.57;97012.13;5036619;28;20008;-78
2021/10/11 09:27:03;;;;;;;;;;;;;;;9.38;73.56;97013.72;5036088;28;19925;-77
2021/10/11 09:29:29;;;;;;;;;;;;;;;9.52;73.81;97013.66;5033943;28;19933;-77
2021/10/11 09:31:59;;;;;;;;;;;;;;;9.58;74.30;97016.28;5039624;28;19932;-77
2021/10/11 09:34:27;;;;;;;;;;;;;;;9.52;74.27;97009.19;5035483;28;19925;-77
2021/10/11 09:36:58;;;;;;;;;;;;;;;9.58;74.08;97008.38;5035757;28;19929;-78
2021/10/11 09:39:24;;;;;;;;;;;;;;;9.50;73.97;97000.72;5035336;28;19979;-78
2021/10/11 09:41:50;;;;;;;;;;;;;;;9.45;74.02;97003.19;5035104;28;19925;-78
2021/10/11 09:44:16;;;;;;;;;;;;;;;9.56;73.67;97005.16;5036401;28;20157;-78
2021/10/11 09:46:45;;;;;;;;;;;;;;;9.76;72.99;96997.19;5034669;28;19925;-78
2021/10/11 09:49:10;;;;;;;;;;;;;;;9.79;72.08;96993.31;5036293;28;19996;-78
2021/10/11 09:51:36;;;;;;;;;;;;;;;10.04;71.54;96991.53;5036114;28;19925;-78
2021/10/11 09:54:03;;;;;;;;;;;;;;;9.86;71.85;96994.88;5036018;28;19933;-77
2021/10/11 09:56:31;;;;;;;;;;;;;;;9.83;71.77;96984.00;5035414;28;19939;-77
2021/10/11 09:58:56;;;;;;;;;;;;;;;9.96;72.01;96986.56;5035682;28;19925;-77
2021/10/11 10:01:24;;;;;;;;;;;;;;;10.10;72.19;96980.16;5044332;28;20228;-77
2021/10/11 10:03:53;;;;;;;;;;;;;;;10.07;71.84;96985.06;5048069;28;19972;-77
2021/10/11 10:06:19;;;;;;;;;;;;;;;10.30;71.68;96989.78;5053638;28;19976;-77
2021/10/11 10:08:47;;;;;;;;;;;;;;;10.32;71.03;96983.25;5052283;28;19932;-78
2021/10/11 10:11:14;;;;;;;;;;;;;;;10.39;71.30;96972.72;5082633;22;19991;-77
2021/10/11 10:13:46;;;;;;;;;;;;;;;10.51;71.27;96981.50;5082205;28;19929;-77
2021/10/11 10:16:13;;;;;;;;;;;;;;;10.51;70.82;96976.25;5077269;28;19931;-76
2021/10/11 10:18:39;;;;;;;;;;;;;;;10.44;70.64;96976.31;5079095;28;20023;-75
2021/10/11 10:21:05;;;;;;;;;;;;;;;10.51;70.37;96973.59;5077919;28;19966;-76
2021/10/11 10:23:31;;;;;;;;;;;;;;;10.71;69.91;96976.88;5078205;28;19924;-75
2021/10/11 10:25:57;;;;;;;;;;;;;;;10.86;69.66;96975.69;5076282;28;19913;-76
2021/10/11 10:28:25;;;;;;;;;;;;;;;10.95;69.56;96972.56;5076794;28;19982;-76
2021/10/11 10:30:54;;;;;;;;;;;;;;;11.04;69.13;96960.72;5082953;28;19924;-76
2021/10/11 10:33:22;;;;;;;;;;;;;;;11.04;69.41;96962.56;5081316;28;19973;-78
2021/10/11 10:35:47;;;;;;;;;;;;;;;11.12;69.46;96956.16;5080014;28;19924;-79
2021/10/11 10:38:16;;;;;;;;;;;;;;;10.96;68.82;96947.03;5082213;28;19933;-75
2021/10/11 10:40:42;;;;;;;;;;;;;;;11.04;68.97;96949.38;5091244;28;20055;-76
2021/10/11 10:43:09;;;;;;;;;;;;;;;11.22;68.71;96948.56;5087791;28;19929;-77
2021/10/11 10:45:37;;;;;;;;;;;;;;;11.27;68.78;96938.97;5081208;28;19925;-77
2021/10/11 10:48:03;;;;;;;;;;;;;;;11.37;67.66;96945.56;5079054;28;20098;-77
2021/10/11 10:50:32;;;;;;;;;;;;;;;11.53;66.41;96947.56;5081635;28;19954;-77
2021/10/11 10:52:59;;;;;;;;;;;;;;;11.77;66.03;96948.44;5080563;28;19924;-75
2021/10/11 10:55:25;;;;;;;;;;;;;;;11.80;66.42;96937.44;5081892;28;19924;-77
2021/10/11 10:57:53;;;;;;;;;;;;;;;11.96;65.98;96934.19;5083205;28;19924;-77
2021/10/11 11:00:19;;;;;;;;;;;;;;;12.01;65.70;96941.44;5085223;28;19940;-76
2021/10/11 11:02:47;;;;;;;;;;;;;;;11.94;66.17;96936.25;5085709;28;19928;-77
2021/10/11 11:05:14;;;;;;;;;;;;;;;12.09;64.91;96933.97;5080629;28;19925;-77
2021/10/11 11:07:40;;;;;;;;;;;;;;;12.18;64.47;96929.19;5083777;28;20296;-78
2021/10/11 11:10:11;;;;;;;;;;;;;;;12.35;64.07;96930.09;5084475;28;19964;-77
2021/10/11 11:12:39;;;;;;;;;;;;;;;12.38;63.22;96930.66;5081268;28;20001;-79
2021/10/11 11:15:06;;;;;;;;;;;;;;;12.68;62.90;96923.44;5083748;28;19963;-77
2021/10/11 11:17:32;;;;;;;;;;;;;;;12.47;62.93;96926.66;5081525;28;20372;-79
2021/10/11 11:19:59;;;;;;;;;;;;;;;12.62;63.57;96932.28;5083626;28;19935;-78
2021/10/11 11:22:28;;;;;;;;;;;;;;;12.84;62.92;96930.66;5083336;28;20019;-79
2021/10/11 11:24:56;;;;;;;;;;;;;;;12.92;62.35;96929.50;5081766;28;19928;-78
2021/10/11 11:27:26;;;;;;;;;;;;;;;13.08;61.17;96922.72;5082749;28;20161;-77
2021/10/11 11:29:52;;;;;;;;;;;;;;;13.08;61.36;96928.00;5085035;28;19955;-78
2021/10/11 11:32:17;;;;;;;;;;;;;;;12.97;61.39;96915.59;5082776;28;19924;-78
2021/10/11 11:34:45;;;;;;;;;;;;;;;13.07;61.86;96906.03;5082736;28;19935;-77
2021/10/11 11:37:12;;;;;;;;;;;;;;;13.19;61.04;96913.16;5083057;28;19924;-79
2021/10/11 11:39:39;;;;;;;;;;;;;;;13.33;61.61;96899.44;5082034;28;20019;-79
2021/10/11 11:42:05;;;;;;;;;;;;;;;13.57;60.29;96894.06;5082005;28;20388;-77
2021/10/11 11:44:31;;;;;;;;;;;;;;;13.51;59.98;96900.28;5081542;28;19925;-78
2021/10/11 11:47:03;;;;;;;;;;;;;;;13.49;60.66;96897.06;5083104;28;19924;-77
2021/10/11 11:49:34;;;;;;;;;;;;;;;13.59;59.86;96889.31;5078836;28;19928;-78
2021/10/11 11:52:07;;;;;;;;;;;;;;;13.50;59.42;96890.75;5080370;28;19912;-77
2021/10/11 11:54:37;;;;;;;;;;;;;;;13.30;60.14;96876.13;5079801;28;19928;-79
2021/10/11 11:57:02;;;;;;;;;;;;;;;13.45;59.93;96882.72;5092735;28;19908;-74
2021/10/11 11:59:28;;;;;;;;;;;;;;;13.56;59.89;96877.41;5097954;28;19988;-77
2021/10/11 12:01:54;;;;;;;;;;;;;;;13.57;59.18;96863.13;5084296;28;19939;-78
2021/10/11 12:04:20;;;;;;;;;;;;;;;13.72;58.77;96865.25;5083239;28;19939;-77
2021/10/11 12:06:47;;;;;;;;;;;;;;;13.75;58.37;96864.75;5081397;28;19932;-75
2021/10/11 12:09:13;;;;;;;;;;;;;;;13.57;57.74;96867.63;5078867;28;19960;-76
2021/10/11 12:11:40;;;;;;;;;;;;;;;13.79;57.68;96863.22;5080595;28;19936;-78
2021/10/11 12:14:05;;;;;;;;;;;;;;;13.82;57.54;96865.38;5082411;28;19996;-77
2021/10/11 12:16:32;;;;;;;;;;;;;;;13.85;57.02;96858.81;5083327;28;19960;-77
2021/10/11 12:19:00;;;;;;;;;;;;;;;13.98;56.25;96858.50;5084431;28;19995;-75
2021/10/11 12:21:27;;;;;;;;;;;;;;;13.80;57.08;96864.84;5082635;28;19948;-76
2021/10/11 12:23:53;;;;;;;;;;;;;;;13.89;57.11;96855.47;5081979;28;19970;-79
2021/10/11 12:26:21;;;;;;;;;;;;;;;13.99;56.94;96856.66;5077509;28;19935;-77
2021/10/11 12:28:52;;;;;;;;;;;;;;;13.99;57.17;96849.53;5082796;28;19925;-76
2021/10/11 12:31:22;;;;;;;;;;;;;;;13.95;55.80;96844.97;5080221;28;19924;-77
2021/10/11 12:33:49;;;;;;;;;;;;;;;13.96;55.87;96841.28;5082507;28;19929;-76
2021/10/11 12:36:15;;;;;;;;;;;;;;;14.19;56.38;96844.53;5080180;28;19931;-76
2021/10/11 12:38:40;;;;;;;;;;;;;;;14.07;57.00;96838.53;5089646;28;19925;-76
2021/10/11 12:41:07;;;;;;;;;;;;;;;14.15;56.18;96839.97;5087512;28;20404;-77
2021/10/11 12:43:32;;;;;;;;;;;;;;;14.19;56.32;96833.16;5082811;28;19964;-77
2021/10/11 12:46:05;;;;;;;;;;;;;;;14.25;55.25;96832.16;5078597;28;19929;-77
2021/10/11 12:48:34;;;;;;;;;;;;;;;14.17;55.82;96836.03;5080917;28;19934;-77